Time;durP1;ratioP1;P1;durP2;ratioP2;P2;SDS_P1;SDS_P2;PMS_P1;PMS_P2;Temp;Humidity;BMP_temperature;BMP_pressure;BME280_temperature;BME280_humidity;BME280_pressure;Samples;Min_cycle;Max_cycle;Signal;HPM_P1;HPM_P2
2023/04/29 00:00:16;;;;;;;4.75;1.85;;;;;;;;;;5049732;28;20052;-68
2023/04/29 00:02:43;;;;;;;3.42;1.23;;;;;;;;;;5063071;28;20084;-69
2023/04/29 00:05:10;;;;;;;2.38;1.00;;;;;;;;;;5069590;28;20131;-68
2023/04/29 00:07:37;;;;;;;2.75;1.17;;;;;;;;;;5069137;28;20045;-68
2023/04/29 00:10:05;;;;;;;2.47;1.10;;;;;;;;;;5069732;28;20342;-68
2023/04/29 00:12:32;;;;;;;1.92;0.93;;;;;;;;;;5069434;28;20053;-68
2023/04/29 00:14:59;;;;;;;2.17;0.88;;;;;;;;;;5069403;28;20094;-69
2023/04/29 00:17:27;;;;;;;2.10;1.10;;;;;;;;;;5069880;28;20056;-68
2023/04/29 00:19:54;;;;;;;2.70;0.98;;;;;;;;;;5069686;28;20133;-69
2023/04/29 00:22:21;;;;;;;2.85;1.63;;;;;;;;;;5069787;28;20132;-69
2023/04/29 00:24:49;;;;;;;2.85;1.05;;;;;;;;;;5069328;28;20051;-69
2023/04/29 00:27:16;;;;;;;2.15;0.90;;;;;;;;;;5069535;28;20472;-68
2023/04/29 00:29:44;;;;;;;2.25;1.00;;;;;;;;;;5069156;28;20086;-69
2023/04/29 00:32:11;;;;;;;2.80;1.15;;;;;;;;;;5069324;28;20060;-69
2023/04/29 00:34:39;;;;;;;2.95;1.15;;;;;;;;;;5069394;28;20091;-69
2023/04/29 00:37:06;;;;;;;3.25;1.15;;;;;;;;;;5069598;28;20049;-69
2023/04/29 00:39:33;;;;;;;2.92;1.27;;;;;;;;;;5068960;28;20117;-68
2023/04/29 00:42:02;;;;;;;3.13;1.20;;;;;;;;;;5069792;28;20106;-70
2023/04/29 00:44:29;;;;;;;2.22;1.00;;;;;;;;;;5069812;28;20407;-69
2023/04/29 00:46:56;;;;;;;2.20;1.00;;;;;;;;;;5069556;28;20052;-69
2023/04/29 00:49:23;;;;;;;2.03;1.00;;;;;;;;;;5068986;28;20138;-69
2023/04/29 00:51:51;;;;;;;1.90;0.98;;;;;;;;;;5069434;28;20489;-70
2023/04/29 00:54:18;;;;;;;2.38;1.00;;;;;;;;;;5069410;28;20049;-69
2023/04/29 00:56:46;;;;;;;2.75;1.35;;;;;;;;;;5069180;28;20442;-69
2023/04/29 00:59:16;;;;;;;2.92;1.23;;;;;;;;;;5068795;28;20573;-69
2023/04/29 01:01:43;;;;;;;4.18;1.40;;;;;;;;;;5064072;28;20545;-69
2023/04/29 01:04:10;;;;;;;2.92;1.10;;;;;;;;;;5048978;28;20501;-70
2023/04/29 01:07:01;;;;;;;3.40;1.40;;;;;;;;;;5049190;28;20052;-68
2023/04/29 01:09:44;;;;;;;2.20;1.25;;;;;;;;;;5048564;28;20053;-70
2023/04/29 01:12:20;;;;;;;3.05;1.60;;;;;;;;;;5049285;28;20509;-68
2023/04/29 01:14:54;;;;;;;2.60;1.15;;;;;;;;;;5048704;28;20045;-68
2023/04/29 01:17:25;;;;;;;5.68;1.50;;;;;;;;;;5048501;28;20118;-68
2023/04/29 01:19:55;;;;;;;3.33;1.25;;;;;;;;;;5051282;28;20045;-69
2023/04/29 01:22:24;;;;;;;3.15;1.40;;;;;;;;;;5052423;28;20048;-68
2023/04/29 01:24:52;;;;;;;3.72;1.50;;;;;;;;;;5052543;28;20119;-68
2023/04/29 01:27:29;;;;;;;4.13;1.50;;;;;;;;;;5052095;28;20103;-69
2023/04/29 01:30:02;;;;;;;2.55;1.42;;;;;;;;;;5052267;28;20045;-68
2023/04/29 01:32:41;;;;;;;2.47;1.45;;;;;;;;;;5052031;28;20057;-68
2023/04/29 01:35:17;;;;;;;3.05;1.33;;;;;;;;;;5052275;28;20351;-68
2023/04/29 01:37:52;;;;;;;1.98;1.10;;;;;;;;;;5052129;28;20072;-70
2023/04/29 01:40:26;;;;;;;2.80;1.23;;;;;;;;;;5051945;28;20095;-68
2023/04/29 01:43:00;;;;;;;2.65;1.15;;;;;;;;;;5051826;28;20049;-70
2023/04/29 01:45:28;;;;;;;2.22;1.15;;;;;;;;;;5051751;28;20060;-68
2023/04/29 01:47:55;;;;;;;2.15;1.25;;;;;;;;;;5051800;28;20098;-68
2023/04/29 01:50:22;;;;;;;2.38;1.30;;;;;;;;;;5051303;28;20049;-69
2023/04/29 01:52:49;;;;;;;3.67;1.27;;;;;;;;;;5052030;28;20121;-69
2023/04/29 01:55:16;;;;;;;2.47;1.00;;;;;;;;;;5051886;28;20052;-69
2023/04/29 01:57:44;;;;;;;2.05;1.20;;;;;;;;;;5051722;28;20460;-68
2023/04/29 02:00:12;;;;;;;2.25;1.05;;;;;;;;;;5051533;28;20049;-68
2023/04/29 02:02:39;;;;;;;2.88;1.25;;;;;;;;;;5064253;28;20110;-68
2023/04/29 02:05:06;;;;;;;2.80;1.02;;;;;;;;;;5072117;28;20049;-68
2023/04/29 02:07:33;;;;;;;1.67;0.90;;;;;;;;;;5071883;28;20056;-68
2023/04/29 02:10:02;;;;;;;3.08;1.00;;;;;;;;;;5071643;28;20053;-68
2023/04/29 02:12:28;;;;;;;1.50;0.90;;;;;;;;;;5071694;28;20068;-70
2023/04/29 02:14:59;;;;;;;1.63;0.90;;;;;;;;;;5072187;28;20053;-69
2023/04/29 02:17:26;;;;;;;2.13;1.10;;;;;;;;;;5071571;28;20056;-68
2023/04/29 02:19:53;;;;;;;1.85;1.10;;;;;;;;;;5071651;28;20055;-69
2023/04/29 02:22:20;;;;;;;1.52;1.00;;;;;;;;;;5071681;28;20463;-69
2023/04/29 02:24:47;;;;;;;2.00;1.00;;;;;;;;;;5071717;28;20047;-69
2023/04/29 02:27:14;;;;;;;1.42;0.90;;;;;;;;;;5071375;28;20155;-69
2023/04/29 02:29:41;;;;;;;1.98;1.10;;;;;;;;;;5071242;28;20060;-69
2023/04/29 02:32:09;;;;;;;1.58;1.10;;;;;;;;;;5070756;28;20088;-69
2023/04/29 02:34:37;;;;;;;1.70;0.90;;;;;;;;;;5071383;28;20045;-69
2023/04/29 02:37:04;;;;;;;1.90;1.00;;;;;;;;;;5070907;28;20048;-69
2023/04/29 02:39:31;;;;;;;1.60;1.00;;;;;;;;;;5071013;28;20078;-68
2023/04/29 02:41:58;;;;;;;2.28;0.90;;;;;;;;;;5071073;28;20049;-69
2023/04/29 02:44:24;;;;;;;2.55;1.20;;;;;;;;;;5071092;28;20059;-69
2023/04/29 02:46:51;;;;;;;2.10;1.20;;;;;;;;;;5071071;28;20127;-68
2023/04/29 02:49:20;;;;;;;1.77;1.10;;;;;;;;;;5070618;28;20142;-69
2023/04/29 02:51:48;;;;;;;2.58;1.17;;;;;;;;;;5070830;28;20056;-69
2023/04/29 02:54:15;;;;;;;2.13;1.30;;;;;;;;;;5070840;28;20048;-68
2023/04/29 02:56:43;;;;;;;2.17;1.20;;;;;;;;;;5070941;28;20048;-71
2023/04/29 02:59:09;;;;;;;2.33;1.20;;;;;;;;;;5070921;28;20074;-68
2023/04/29 03:01:37;;;;;;;1.88;1.20;;;;;;;;;;5066940;28;20056;-70
2023/04/29 03:04:04;;;;;;;2.35;1.10;;;;;;;;;;5050501;28;20045;-69
2023/04/29 03:06:32;;;;;;;1.63;1.13;;;;;;;;;;5050855;28;20053;-69
2023/04/29 03:08:59;;;;;;;2.72;1.10;;;;;;;;;;5050595;28;20382;-68
2023/04/29 03:11:26;;;;;;;2.30;1.10;;;;;;;;;;5050572;28;20564;-68
2023/04/29 03:13:53;;;;;;;1.95;1.13;;;;;;;;;;5050679;28;20139;-69
2023/04/29 03:16:20;;;;;;;2.33;1.20;;;;;;;;;;5050406;28;20131;-68
2023/04/29 03:18:47;;;;;;;2.22;1.20;;;;;;;;;;5050057;28;20139;-69
2023/04/29 03:21:14;;;;;;;2.25;1.25;;;;;;;;;;5050414;28;20049;-68
2023/04/29 03:23:43;;;;;;;2.35;1.08;;;;;;;;;;5050321;28;20306;-68
2023/04/29 03:26:10;;;;;;;2.08;1.10;;;;;;;;;;5050555;28;20053;-68
2023/04/29 03:28:37;;;;;;;3.10;1.50;;;;;;;;;;5050175;28;20106;-68
2023/04/29 03:31:04;;;;;;;2.15;1.23;;;;;;;;;;5050172;28;20052;-70
2023/04/29 03:33:31;;;;;;;2.88;1.20;;;;;;;;;;5050139;28;20061;-69
2023/04/29 03:35:57;;;;;;;1.90;1.30;;;;;;;;;;5050336;28;20049;-69
2023/04/29 03:38:24;;;;;;;3.88;2.08;;;;;;;;;;5050269;28;20048;-69
2023/04/29 03:40:53;;;;;;;2.65;1.40;;;;;;;;;;5049904;28;20079;-68
2023/04/29 03:43:19;;;;;;;2.63;1.40;;;;;;;;;;5049967;28;20049;-68
2023/04/29 03:45:46;;;;;;;3.45;1.40;;;;;;;;;;5049973;28;20079;-68
2023/04/29 03:48:13;;;;;;;2.33;1.35;;;;;;;;;;5049864;28;20424;-68
2023/04/29 03:50:40;;;;;;;3.20;1.75;;;;;;;;;;5049795;28;20041;-68
2023/04/29 03:53:07;;;;;;;3.00;1.48;;;;;;;;;;5050216;28;20052;-68
2023/04/29 03:55:34;;;;;;;3.10;1.40;;;;;;;;;;5050022;28;20103;-68
2023/04/29 03:58:02;;;;;;;2.60;1.40;;;;;;;;;;5049773;28;20053;-69
2023/04/29 04:00:30;;;;;;;3.50;1.70;;;;;;;;;;5049354;28;20103;-69
2023/04/29 04:02:57;;;;;;;2.95;1.80;;;;;;;;;;5064493;28;20090;-69
2023/04/29 04:05:25;;;;;;;3.50;1.65;;;;;;;;;;5069567;28;20459;-68
2023/04/29 04:07:51;;;;;;;3.53;1.88;;;;;;;;;;5069335;28;20127;-69
2023/04/29 04:10:18;;;;;;;3.55;1.70;;;;;;;;;;5069001;28;20076;-68
2023/04/29 04:12:46;;;;;;;3.42;1.88;;;;;;;;;;5069418;28;20097;-69
2023/04/29 04:15:15;;;;;;;3.13;1.67;;;;;;;;;;5069273;28;20049;-68
2023/04/29 04:17:43;;;;;;;4.23;1.73;;;;;;;;;;5069465;28;20056;-68
2023/04/29 04:20:10;;;;;;;2.10;1.50;;;;;;;;;;5069368;28;20055;-69
2023/04/29 04:22:37;;;;;;;3.20;1.70;;;;;;;;;;5069536;28;20052;-69
2023/04/29 04:25:05;;;;;;;2.97;1.83;;;;;;;;;;5069665;28;20055;-69
2023/04/29 04:27:32;;;;;;;3.20;1.85;;;;;;;;;;5069091;28;20054;-70
2023/04/29 04:29:58;;;;;;;2.67;1.65;;;;;;;;;;5068895;28;20044;-68
2023/04/29 04:32:27;;;;;;;3.60;1.80;;;;;;;;;;5069178;28;20045;-68
2023/04/29 04:34:54;;;;;;;2.80;1.70;;;;;;;;;;5069578;28;20057;-68
2023/04/29 04:37:20;;;;;;;2.80;1.60;;;;;;;;;;5068778;28;20147;-68
2023/04/29 04:39:48;;;;;;;4.57;2.05;;;;;;;;;;5069015;28;20082;-68
2023/04/29 04:42:15;;;;;;;3.30;1.90;;;;;;;;;;5069091;28;20500;-70
2023/04/29 04:44:41;;;;;;;4.32;1.88;;;;;;;;;;5069037;28;20052;-69
2023/04/29 04:47:08;;;;;;;2.92;1.60;;;;;;;;;;5069395;28;20052;-69
2023/04/29 04:49:36;;;;;;;3.38;2.00;;;;;;;;;;5068580;28;20121;-69
2023/04/29 04:52:03;;;;;;;3.15;1.90;;;;;;;;;;5069129;28;20045;-69
2023/04/29 04:54:30;;;;;;;2.97;1.67;;;;;;;;;;5071437;28;20578;-69
2023/04/29 04:56:57;;;;;;;3.28;1.98;;;;;;;;;;5073013;28;20052;-68
2023/04/29 04:59:24;;;;;;;2.88;1.60;;;;;;;;;;5072673;28;20444;-68
2023/04/29 05:01:50;;;;;;;3.83;2.00;;;;;;;;;;5070343;28;20060;-68
2023/04/29 05:06:46;;;;;;;3.67;1.83;;;;;;;;;;4991367;28;20503;-66
2023/04/29 05:09:13;;;;;;;4.47;2.00;;;;;;;;;;4994317;28;20058;-66
2023/04/29 05:11:40;;;;;;;3.42;1.92;;;;;;;;;;4994833;28;20061;-67
2023/04/29 05:14:07;;;;;;;3.35;1.80;;;;;;;;;;4994942;28;20511;-66
2023/04/29 05:16:34;;;;;;;3.58;1.83;;;;;;;;;;4994640;28;20096;-65
2023/04/29 05:19:01;;;;;;;3.60;1.90;;;;;;;;;;4994159;28;20051;-65
2023/04/29 05:21:28;;;;;;;4.10;2.10;;;;;;;;;;4994283;28;20109;-66
2023/04/29 05:23:56;;;;;;;3.10;1.70;;;;;;;;;;4994095;28;20417;-66
2023/04/29 05:26:23;;;;;;;4.18;1.95;;;;;;;;;;4994225;28;20046;-67
2023/04/29 05:28:50;;;;;;;3.50;2.20;;;;;;;;;;4993780;28;20429;-67
2023/04/29 05:31:17;;;;;;;3.83;2.00;;;;;;;;;;4993724;28;20058;-66
2023/04/29 05:33:43;;;;;;;3.67;2.10;;;;;;;;;;4993789;28;20054;-67
2023/04/29 05:36:10;;;;;;;3.85;2.50;;;;;;;;;;4994388;28;20054;-67
2023/04/29 05:38:37;;;;;;;3.72;2.20;;;;;;;;;;4993874;28;20569;-67
2023/04/29 05:41:06;;;;;;;4.15;2.13;;;;;;;;;;4994522;28;20089;-67
2023/04/29 05:43:32;;;;;;;3.72;2.08;;;;;;;;;;4993854;28;20411;-66
2023/04/29 05:45:59;;;;;;;4.30;2.22;;;;;;;;;;4994166;28;20066;-67
2023/04/29 05:48:27;;;;;;;4.07;2.35;;;;;;;;;;4994002;28;20109;-66
2023/04/29 05:50:54;;;;;;;3.45;1.98;;;;;;;;;;4993753;28;20057;-67
2023/04/29 05:53:21;;;;;;;4.25;2.38;;;;;;;;;;4993772;28;20190;-68
2023/04/29 05:55:49;;;;;;;4.63;2.40;;;;;;;;;;4993872;28;20463;-67
2023/04/29 05:58:18;;;;;;;3.80;2.15;;;;;;;;;;4993609;28;20054;-66
2023/04/29 06:00:44;;;;;;;5.10;2.80;;;;;;;;;;4993083;28;20046;-66
2023/04/29 06:03:11;;;;;;;5.32;2.60;;;;;;;;;;4993252;28;20418;-67
2023/04/29 06:05:38;;;;;;;4.38;2.95;;;;;;;;;;4992694;28;20141;-68
2023/04/29 06:08:06;;;;;;;4.88;3.17;;;;;;;;;;4993659;28;20051;-67
2023/04/29 06:10:35;;;;;;;4.80;3.55;;;;;;;;;;4993118;28;20519;-68
2023/04/29 06:13:02;;;;;;;5.55;3.20;;;;;;;;;;4993616;28;20062;-68
2023/04/29 06:15:30;;;;;;;5.57;3.63;;;;;;;;;;4993234;28;20054;-67
2023/04/29 06:17:57;;;;;;;4.95;3.42;;;;;;;;;;4993389;28;20224;-68
2023/04/29 06:20:24;;;;;;;5.50;3.50;;;;;;;;;;4992995;28;20054;-66
2023/04/29 06:22:51;;;;;;;5.82;3.88;;;;;;;;;;4993289;28;20062;-66
2023/04/29 06:25:18;;;;;;;6.25;4.10;;;;;;;;;;4993630;28;20043;-67
2023/04/29 06:27:45;;;;;;;6.80;4.38;;;;;;;;;;4992804;28;20054;-67
2023/04/29 06:30:12;;;;;;;5.70;4.10;;;;;;;;;;4992773;28;20078;-67
2023/04/29 06:32:40;;;;;;;6.40;4.65;;;;;;;;;;4993380;28;20054;-67
2023/04/29 06:35:08;;;;;;;6.80;4.47;;;;;;;;;;4992923;28;20050;-66
2023/04/29 06:37:35;;;;;;;6.60;4.55;;;;;;;;;;4992904;28;20061;-66
2023/04/29 06:40:02;;;;;;;6.88;4.35;;;;;;;;;;4992367;28;20054;-66
2023/04/29 06:42:31;;;;;;;8.38;5.35;;;;;;;;;;4992900;28;20077;-67
2023/04/29 06:44:58;;;;;;;6.28;4.45;;;;;;;;;;4993195;28;20043;-68
2023/04/29 06:47:25;;;;;;;5.20;4.13;;;;;;;;;;4993381;28;20077;-67
2023/04/29 06:49:53;;;;;;;8.95;4.85;;;;;;;;;;4992755;28;20054;-67
2023/04/29 06:52:20;;;;;;;6.40;4.40;;;;;;;;;;4992799;28;20562;-67
2023/04/29 06:54:47;;;;;;;6.53;4.63;;;;;;;;;;4992690;28;20094;-67
2023/04/29 06:57:14;;;;;;;6.28;4.50;;;;;;;;;;4992968;28;20377;-67
2023/04/29 06:59:41;;;;;;;8.10;4.70;;;;;;;;;;4992965;28;20447;-67
2023/04/29 07:02:08;;;;;;;7.13;4.50;;;;;;;;;;4992593;28;20570;-67
2023/04/29 07:04:36;;;;;;;5.65;4.20;;;;;;;;;;4992498;28;20042;-66
2023/04/29 07:07:04;;;;;;;6.15;4.03;;;;;;;;;;4992656;28;20050;-68
2023/04/29 07:09:31;;;;;;;6.38;4.45;;;;;;;;;;4992257;28;20100;-68
2023/04/29 07:11:58;;;;;;;7.38;4.05;;;;;;;;;;4992558;28;20061;-68
2023/04/29 07:14:25;;;;;;;6.05;4.47;;;;;;;;;;4992766;28;20085;-68
2023/04/29 07:16:55;;;;;;;6.18;4.22;;;;;;;;;;4992411;28;20053;-68
2023/04/29 07:19:22;;;;;;;6.18;3.83;;;;;;;;;;4992285;28;20046;-66
2023/04/29 07:21:49;;;;;;;5.03;3.45;;;;;;;;;;4992483;28;20101;-67
2023/04/29 07:24:18;;;;;;;5.15;3.80;;;;;;;;;;4992154;28;20569;-67
2023/04/29 07:26:45;;;;;;;6.03;4.00;;;;;;;;;;4991654;28;20138;-67
2023/04/29 07:29:12;;;;;;;5.40;3.42;;;;;;;;;;4991818;28;20054;-67
2023/04/29 07:31:38;;;;;;;5.30;3.80;;;;;;;;;;4991926;28;20450;-68
2023/04/29 07:34:06;;;;;;;5.07;3.83;;;;;;;;;;4991911;28;20050;-68
2023/04/29 07:36:32;;;;;;;4.43;3.25;;;;;;;;;;4991791;28;20065;-68
2023/04/29 07:38:59;;;;;;;4.82;3.50;;;;;;;;;;4991987;28;20133;-69
2023/04/29 07:41:28;;;;;;;5.10;3.35;;;;;;;;;;4991603;28;20054;-68
2023/04/29 07:43:55;;;;;;;4.90;3.22;;;;;;;;;;4991465;28;20054;-68
2023/04/29 07:46:22;;;;;;;5.35;2.95;;;;;;;;;;4992333;28;20125;-68
2023/04/29 07:48:49;;;;;;;4.65;3.47;;;;;;;;;;4991190;28;20078;-66
2023/04/29 07:51:16;;;;;;;4.70;3.00;;;;;;;;;;4992037;28;20467;-66
2023/04/29 07:53:43;;;;;;;3.90;2.85;;;;;;;;;;4991528;28;20058;-66
2023/04/29 07:56:10;;;;;;;5.43;3.75;;;;;;;;;;4991322;28;20097;-65
2023/04/29 07:58:38;;;;;;;4.53;3.30;;;;;;;;;;4991616;28;20054;-66
2023/04/29 08:01:06;;;;;;;4.97;2.78;;;;;;;;;;4990981;28;20050;-66
2023/04/29 08:03:33;;;;;;;4.78;3.15;;;;;;;;;;4991356;28;20077;-66
2023/04/29 08:06:02;;;;;;;4.70;2.80;;;;;;;;;;4991404;28;20042;-65
2023/04/29 08:08:29;;;;;;;4.18;3.03;;;;;;;;;;4991420;28;20054;-67
2023/04/29 08:10:56;;;;;;;4.75;3.30;;;;;;;;;;4990576;28;20050;-66
2023/04/29 08:13:24;;;;;;;4.72;3.08;;;;;;;;;;4973596;28;20415;-66
2023/04/29 08:15:52;;;;;;;4.93;2.85;;;;;;;;;;4990793;28;20054;-66
2023/04/29 08:18:20;;;;;;;6.90;3.13;;;;;;;;;;4991146;28;20388;-66
2023/04/29 08:20:49;;;;;;;4.47;3.03;;;;;;;;;;4991176;28;20491;-66
2023/04/29 08:23:15;;;;;;;4.63;2.47;;;;;;;;;;4990636;28;20058;-65
2023/04/29 08:25:43;;;;;;;4.65;2.42;;;;;;;;;;4990723;28;20054;-66
2023/04/29 08:28:10;;;;;;;3.88;2.42;;;;;;;;;;4990868;28;20056;-66
2023/04/29 08:30:39;;;;;;;3.65;2.38;;;;;;;;;;4990725;28;20061;-66
2023/04/29 08:33:08;;;;;;;5.70;3.13;;;;;;;;;;4990770;28;20061;-66
2023/04/29 08:35:37;;;;;;;4.25;2.60;;;;;;;;;;4990475;28;20137;-66
2023/04/29 08:38:05;;;;;;;3.47;2.47;;;;;;;;;;4990955;28;20129;-66
2023/04/29 08:40:35;;;;;;;4.57;2.83;;;;;;;;;;4990525;28;20061;-66
2023/04/29 08:43:03;;;;;;;4.60;2.80;;;;;;;;;;4991140;28;20573;-65
2023/04/29 08:45:32;;;;;;;3.58;2.28;;;;;;;;;;4990833;28;20047;-65
2023/04/29 08:48:02;;;;;;;4.20;2.35;;;;;;;;;;4990387;28;20061;-65
2023/04/29 08:50:31;;;;;;;4.18;2.42;;;;;;;;;;4989795;28;20050;-67
2023/04/29 08:52:58;;;;;;;3.40;2.20;;;;;;;;;;4990037;28;20046;-66
2023/04/29 08:55:25;;;;;;;4.15;2.50;;;;;;;;;;4990033;28;20249;-67
2023/04/29 08:57:54;;;;;;;3.50;2.28;;;;;;;;;;4990653;28;20108;-65
2023/04/29 09:00:24;;;;;;;3.60;2.40;;;;;;;;;;4990210;28;20050;-66
2023/04/29 09:02:54;;;;;;;3.40;2.20;;;;;;;;;;4990480;28;20363;-66
2023/04/29 09:05:21;;;;;;;3.95;2.35;;;;;;;;;;4990698;28;20526;-66
2023/04/29 09:07:51;;;;;;;3.53;2.38;;;;;;;;;;4991087;28;20082;-66
2023/04/29 09:10:19;;;;;;;4.97;2.40;;;;;;;;;;4990829;28;20101;-65
2023/04/29 09:12:46;;;;;;;3.75;1.60;;;;;;;;;;4990495;28;20046;-69
2023/04/29 09:15:12;;;;;;;3.33;2.05;;;;;;;;;;4990406;28;20059;-67
2023/04/29 09:17:41;;;;;;;4.18;2.00;;;;;;;;;;4990157;28;20051;-70
2023/04/29 09:20:26;;;;;;;2.60;1.65;;;;;;;;;;4990581;28;20056;-68
2023/04/29 09:22:55;;;;;;;3.20;1.80;;;;;;;;;;4990419;28;20442;-68
2023/04/29 09:25:23;;;;;;;2.90;1.60;;;;;;;;;;4990474;28;20054;-68
2023/04/29 09:27:50;;;;;;;3.72;1.75;;;;;;;;;;4991096;28;20049;-67
2023/04/29 09:30:18;;;;;;;4.38;1.83;;;;;;;;;;4990948;28;20046;-67
2023/04/29 09:32:46;;;;;;;3.20;2.00;;;;;;;;;;4990690;28;20133;-67
2023/04/29 09:35:24;;;;;;;3.53;2.00;;;;;;;;;;4990669;28;20419;-67
2023/04/29 09:37:52;;;;;;;4.93;2.58;;;;;;;;;;4990938;28;20061;-68
2023/04/29 09:40:31;;;;;;;3.33;1.88;;;;;;;;;;4991856;28;20046;-68
2023/04/29 09:42:59;;;;;;;3.03;1.80;;;;;;;;;;4974752;28;20097;-69
2023/04/29 09:45:35;;;;;;;2.75;1.70;;;;;;;;;;4974157;28;20070;-68
2023/04/29 09:48:03;;;;;;;2.50;1.63;;;;;;;;;;4974170;28;20054;-69
2023/04/29 09:50:30;;;;;;;2.40;1.70;;;;;;;;;;4974527;28;20054;-68
2023/04/29 09:52:57;;;;;;;3.28;1.60;;;;;;;;;;4974163;28;20082;-69
2023/04/29 09:55:25;;;;;;;3.10;1.73;;;;;;;;;;4974589;28;20058;-69
2023/04/29 09:57:54;;;;;;;3.28;1.80;;;;;;;;;;4988656;28;20441;-67
2023/04/29 10:00:20;;;;;;;2.95;2.08;;;;;;;;;;4993144;28;20061;-68
2023/04/29 10:02:49;;;;;;;6.28;2.40;;;;;;;;;;4993132;28;20050;-68
2023/04/29 10:05:17;;;;;;;3.75;2.28;;;;;;;;;;4993186;28;20057;-67
2023/04/29 10:07:47;;;;;;;3.50;2.30;;;;;;;;;;4992933;28;20058;-68
2023/04/29 10:10:15;;;;;;;4.38;2.50;;;;;;;;;;4992772;28;20050;-68
2023/04/29 10:12:43;;;;;;;3.55;2.35;;;;;;;;;;4993365;28;20504;-69
2023/04/29 10:15:20;;;;;;;3.67;2.40;;;;;;;;;;4993340;28;20065;-69
2023/04/29 10:17:51;;;;;;;3.67;2.35;;;;;;;;;;4993403;28;20054;-70
2023/04/29 10:20:23;;;;;;;5.03;3.45;;;;;;;;;;4993092;28;20393;-70
2023/04/29 10:22:51;;;;;;;5.20;2.90;;;;;;;;;;4993142;28;20060;-70
2023/04/29 10:25:20;;;;;;;5.65;3.20;;;;;;;;;;4993385;28;20119;-69
2023/04/29 10:27:49;;;;;;;6.05;3.63;;;;;;;;;;4993189;28;20054;-69
2023/04/29 10:30:18;;;;;;;4.85;2.53;;;;;;;;;;4993077;28;20042;-68
2023/04/29 10:32:46;;;;;;;3.33;2.05;;;;;;;;;;4993062;28;20054;-69
2023/04/29 10:35:15;;;;;;;3.92;1.83;;;;;;;;;;4992842;28;20062;-69
2023/04/29 10:37:43;;;;;;;3.35;2.15;;;;;;;;;;4992462;28;20089;-69
2023/04/29 10:40:14;;;;;;;3.88;2.22;;;;;;;;;;4992378;28;20057;-70
2023/04/29 10:42:45;;;;;;;3.80;2.67;;;;;;;;;;4992977;28;20430;-70
2023/04/29 10:45:21;;;;;;;4.55;2.17;;;;;;;;;;4992793;28;20046;-70
2023/04/29 10:48:11;;;;;;;4.45;1.90;;;;;;;;;;4992497;28;20496;-70
2023/04/29 10:51:01;;;;;;;3.67;2.00;;;;;;;;;;4992334;28;20058;-70
2023/04/29 10:53:29;;;;;;;2.78;1.90;;;;;;;;;;4992220;28;20054;-70
2023/04/29 10:55:58;;;;;;;2.55;1.80;;;;;;;;;;4992769;28;20238;-70
2023/04/29 10:58:40;;;;;;;3.67;1.90;;;;;;;;;;4992115;28;20062;-70
2023/04/29 11:01:11;;;;;;;2.95;1.70;;;;;;;;;;4991979;28;20051;-70
2023/04/29 11:03:53;;;;;;;;;;;;;;;;;;4992747;28;20055;-70
2023/04/29 11:06:23;;;;;;;3.22;2.25;;;;;;;;;;4992640;28;20385;-69
2023/04/29 11:09:01;;;;;;;2.90;1.90;;;;;;;;;;4991995;28;20062;-69
2023/04/29 11:11:43;;;;;;;3.30;1.85;;;;;;;;;;4992201;28;20054;-69
2023/04/29 11:14:11;;;;;;;3.33;1.80;;;;;;;;;;4992156;28;20480;-69
2023/04/29 11:16:47;;;;;;;3.15;2.03;;;;;;;;;;4991971;28;20058;-69
2023/04/29 11:19:15;;;;;;;2.70;1.80;;;;;;;;;;4991455;28;20475;-69
2023/04/29 11:21:44;;;;;;;2.30;1.45;;;;;;;;;;4991939;28;20404;-68
2023/04/29 11:24:11;;;;;;;2.75;1.70;;;;;;;;;;4992141;28;20061;-68
2023/04/29 11:26:38;;;;;;;2.63;1.52;;;;;;;;;;4992074;28;20085;-68
2023/04/29 11:29:07;;;;;;;2.17;1.50;;;;;;;;;;4991499;28;20050;-68
2023/04/29 11:31:34;;;;;;;3.53;1.67;;;;;;;;;;4991586;28;20105;-70
2023/04/29 11:34:06;;;;;;;2.25;1.35;;;;;;;;;;4991505;28;20463;-69
2023/04/29 11:36:34;;;;;;;2.85;1.60;;;;;;;;;;4991758;28;20054;-68
2023/04/29 11:39:02;;;;;;;2.58;1.60;;;;;;;;;;4991545;28;20108;-68
2023/04/29 11:41:30;;;;;;;3.13;1.90;;;;;;;;;;4991431;28;20085;-68
2023/04/29 11:43:57;;;;;;;3.22;1.73;;;;;;;;;;4991591;28;20059;-69
2023/04/29 11:46:24;;;;;;;2.22;1.30;;;;;;;;;;4991278;28;20516;-69
2023/04/29 11:48:51;;;;;;;2.33;1.30;;;;;;;;;;4991519;28;20463;-70
2023/04/29 11:51:21;;;;;;;2.10;1.45;;;;;;;;;;4991532;28;20054;-70
2023/04/29 11:53:48;;;;;;;2.55;1.20;;;;;;;;;;4991281;28;20133;-70
2023/04/29 11:56:15;;;;;;;2.42;1.20;;;;;;;;;;4991639;28;20059;-70
2023/04/29 11:58:43;;;;;;;3.40;1.30;;;;;;;;;;4991648;28;20042;-69
2023/04/29 12:01:10;;;;;;;1.98;1.30;;;;;;;;;;4990942;28;20503;-69
2023/04/29 12:03:37;;;;;;;2.70;1.35;;;;;;;;;;4990756;28;20050;-69
2023/04/29 12:06:04;;;;;;;2.20;1.15;;;;;;;;;;4991215;28;20054;-69
2023/04/29 12:08:33;;;;;;;2.60;1.30;;;;;;;;;;4991192;28;20050;-69
2023/04/29 12:11:01;;;;;;;2.20;1.20;;;;;;;;;;4991626;28;20062;-69
2023/04/29 12:13:29;;;;;;;1.95;1.33;;;;;;;;;;4991332;28;20058;-69
2023/04/29 12:15:58;;;;;;;2.67;1.23;;;;;;;;;;4991451;28;20125;-69
2023/04/29 12:18:29;;;;;;;2.25;1.50;;;;;;;;;;4991816;28;20228;-70
2023/04/29 12:20:57;;;;;;;3.00;1.70;;;;;;;;;;4991140;28;20046;-69
2023/04/29 12:23:26;;;;;;;2.30;1.35;;;;;;;;;;4991322;28;20423;-69
2023/04/29 12:25:57;;;;;;;2.67;1.98;;;;;;;;;;4991027;28;20424;-69
2023/04/29 12:28:24;;;;;;;;;;;;;;;;;;4991271;28;20132;-69
2023/04/29 12:30:52;;;;;;;2.35;1.33;;;;;;;;;;4991012;28;19975;-69
2023/04/29 12:33:20;;;;;;;2.78;1.60;;;;;;;;;;4990650;28;20050;-69
2023/04/29 12:35:48;;;;;;;1.70;1.20;;;;;;;;;;4991054;28;20141;-69
2023/04/29 12:38:17;;;;;;;2.05;1.52;;;;;;;;;;4991100;28;20053;-71
2023/04/29 12:40:45;;;;;;;3.05;1.38;;;;;;;;;;4990648;28;20060;-69
2023/04/29 12:43:13;;;;;;;1.83;1.30;;;;;;;;;;4990761;28;20050;-68
2023/04/29 12:45:40;;;;;;;2.95;1.75;;;;;;;;;;4990752;28;20050;-69
2023/04/29 12:48:07;;;;;;;2.50;1.60;;;;;;;;;;4990885;28;20129;-70
2023/04/29 12:50:36;;;;;;;3.03;1.65;;;;;;;;;;4990767;28;20058;-70
2023/04/29 12:53:05;;;;;;;2.65;1.58;;;;;;;;;;4990652;28;20112;-70
2023/04/29 12:55:34;;;;;;;2.15;1.20;;;;;;;;;;4990702;28;20104;-69
2023/04/29 12:58:01;;;;;;;2.40;1.50;;;;;;;;;;4991233;28;20042;-69
2023/04/29 13:00:30;;;;;;;2.63;1.30;;;;;;;;;;4990357;28;20043;-70
2023/04/29 13:02:58;;;;;;;3.10;1.20;;;;;;;;;;4990573;28;20152;-70
2023/04/29 13:05:25;;;;;;;3.28;1.77;;;;;;;;;;4990492;28;20094;-70
2023/04/29 13:07:52;;;;;;;2.78;1.13;;;;;;;;;;4990460;28;20054;-69
2023/04/29 13:10:19;;;;;;;2.13;1.10;;;;;;;;;;4990119;28;20051;-68
2023/04/29 13:12:46;;;;;;;3.45;1.00;;;;;;;;;;4990947;28;20046;-70
2023/04/29 13:15:14;;;;;;;1.80;1.20;;;;;;;;;;4992069;28;20054;-69
2023/04/29 13:17:43;;;;;;;3.25;1.20;;;;;;;;;;4994727;28;20054;-69
2023/04/29 13:20:11;;;;;;;0.98;0.80;;;;;;;;;;4993956;28;20095;-69
2023/04/29 13:22:38;;;;;;;1.00;0.85;;;;;;;;;;4994528;28;20051;-70
2023/04/29 13:25:06;;;;;;;2.28;1.10;;;;;;;;;;4994668;28;20408;-70
2023/04/29 13:27:33;;;;;;;1.17;0.90;;;;;;;;;;4994511;28;20046;-69
2023/04/29 13:30:00;;;;;;;1.40;1.00;;;;;;;;;;4993686;28;20050;-71
2023/04/29 13:32:27;;;;;;;2.38;1.00;;;;;;;;;;4994133;28;20423;-69
2023/04/29 13:34:56;;;;;;;1.40;0.90;;;;;;;;;;4994661;28;20144;-69
2023/04/29 13:37:23;;;;;;;1.52;1.10;;;;;;;;;;4994167;28;20050;-69
2023/04/29 13:39:50;;;;;;;2.42;1.20;;;;;;;;;;4994148;28;20050;-70
2023/04/29 13:42:17;;;;;;;3.38;2.08;;;;;;;;;;4994228;28;20058;-69
2023/04/29 13:44:44;;;;;;;1.38;1.00;;;;;;;;;;4994529;28;20703;-71
2023/04/29 13:47:12;;;;;;;2.13;1.25;;;;;;;;;;4993724;28;20053;-69
2023/04/29 13:49:40;;;;;;;2.45;1.00;;;;;;;;;;4993697;28;20062;-69
2023/04/29 13:52:08;;;;;;;1.55;1.05;;;;;;;;;;4994163;28;20105;-69
2023/04/29 13:54:35;;;;;;;1.77;0.90;;;;;;;;;;4994199;28;20061;-68
2023/04/29 13:57:03;;;;;;;1.50;0.95;;;;;;;;;;4993569;28;20087;-68
2023/04/29 13:59:31;;;;;;;1.88;1.13;;;;;;;;;;4993124;28;20565;-68
2023/04/29 14:01:58;;;;;;;1.90;1.10;;;;;;;;;;4992706;28;20137;-69
2023/04/29 14:04:25;;;;;;;1.85;0.98;;;;;;;;;;4989595;28;20054;-68
2023/04/29 14:06:53;;;;;;;2.55;1.27;;;;;;;;;;4993816;28;20096;-69
2023/04/29 14:09:22;;;;;;;2.38;1.30;;;;;;;;;;4992587;28;20042;-69
2023/04/29 14:11:50;;;;;;;3.38;1.20;;;;;;;;;;4993105;28;20058;-69
2023/04/29 14:14:18;;;;;;;3.08;1.45;;;;;;;;;;4993851;28;20042;-69
2023/04/29 14:16:45;;;;;;;2.47;1.45;;;;;;;;;;4990891;28;20054;-70
2023/04/29 14:19:11;;;;;;;1.75;1.10;;;;;;;;;;4992769;28;20546;-69
2023/04/29 14:21:38;;;;;;;1.10;1.00;;;;;;;;;;4992966;28;20062;-69
2023/04/29 14:24:06;;;;;;;2.30;1.02;;;;;;;;;;4993399;28;20066;-69
2023/04/29 14:26:36;;;;;;;1.45;1.00;;;;;;;;;;4992284;28;20092;-68
2023/04/29 14:29:03;;;;;;;1.58;1.13;;;;;;;;;;4993065;28;20054;-69
2023/04/29 14:31:31;;;;;;;1.42;1.00;;;;;;;;;;4993105;28;20429;-70
2023/04/29 14:33:58;;;;;;;1.58;1.00;;;;;;;;;;4993315;28;20638;-69
2023/04/29 14:36:25;;;;;;;2.58;1.55;;;;;;;;;;4993070;28;20109;-70
2023/04/29 14:38:52;;;;;;;2.22;1.35;;;;;;;;;;4993027;28;20562;-68
2023/04/29 14:41:20;;;;;;;1.25;0.98;;;;;;;;;;4992208;28;20058;-69
2023/04/29 14:43:48;;;;;;;1.70;1.10;;;;;;;;;;4993076;28;20144;-68
2023/04/29 14:46:15;;;;;;;2.17;1.00;;;;;;;;;;4992549;28;20096;-69
2023/04/29 14:48:42;;;;;;;2.60;1.08;;;;;;;;;;4993175;28;20054;-70
2023/04/29 14:51:09;;;;;;;1.35;1.08;;;;;;;;;;4992637;28;20449;-70